createdAt,value
2022-09-15T00:01:50.898Z,2.10
2022-09-15T00:04:17.504Z,2.42
2022-09-15T00:06:44.020Z,2.47
2022-09-15T00:09:10.441Z,2.20
2022-09-15T00:11:38.330Z,2.28
2022-09-15T00:14:06.968Z,2.05
2022-09-15T00:16:33.659Z,1.92
2022-09-15T00:19:00.813Z,1.88
2022-09-15T00:21:30.950Z,2.00
2022-09-15T00:23:59.262Z,1.80
2022-09-15T00:26:27.547Z,2.28
2022-09-15T00:28:54.609Z,1.98
2022-09-15T00:31:23.828Z,1.63
2022-09-15T00:33:52.319Z,1.77
2022-09-15T00:36:19.830Z,1.60
2022-09-15T00:38:46.615Z,1.80
2022-09-15T00:41:15.157Z,1.52
2022-09-15T00:44:01.103Z,3.15
2022-09-15T00:46:30.785Z,1.88
2022-09-15T00:49:06.430Z,1.92
2022-09-15T00:51:42.981Z,2.10
2022-09-15T00:54:16.499Z,1.70
2022-09-15T00:56:45.343Z,2.20
2022-09-15T00:59:17.119Z,2.05
2022-09-15T01:01:44.906Z,2.07
2022-09-15T01:04:12.834Z,2.20
2022-09-15T01:06:47.804Z,2.05
2022-09-15T01:09:23.769Z,2.05
2022-09-15T01:11:50.935Z,2.20
2022-09-15T01:14:17.443Z,2.50
2022-09-15T01:16:53.021Z,1.90
2022-09-15T01:20:00.255Z,2.20
2022-09-15T01:22:51.601Z,1.70
2022-09-15T01:25:56.541Z,1.50
2022-09-15T01:28:45.182Z,1.85
2022-09-15T01:31:29.419Z,1.50
2022-09-15T01:34:05.926Z,1.60
2022-09-15T01:36:45.333Z,1.92
2022-09-15T01:39:23.992Z,1.60
2022-09-15T01:41:55.424Z,2.25
2022-09-15T01:44:26.211Z,1.45
2022-09-15T01:47:02.202Z,2.00
2022-09-15T01:49:34.262Z,2.20
2022-09-15T01:52:01.055Z,1.60
2022-09-15T01:54:33.374Z,2.05
2022-09-15T01:56:59.961Z,1.50
2022-09-15T01:59:26.430Z,1.27
2022-09-15T02:02:04.561Z,2.05
2022-09-15T02:04:46.568Z,1.55
2022-09-15T02:07:31.194Z,1.77
2022-09-15T02:10:17.677Z,1.38
2022-09-15T02:12:56.072Z,1.42
2022-09-15T02:15:33.428Z,1.80
2022-09-15T02:18:02.521Z,1.30
2022-09-15T02:20:35.205Z,1.83
2022-09-15T02:25:41.846Z,1.67
2022-09-15T02:28:11.539Z,1.40
2022-09-15T02:30:42.025Z,2.38
2022-09-15T02:33:14.679Z,1.65
2022-09-15T02:38:10.548Z,1.20
2022-09-15T02:40:40.415Z,1.52
2022-09-15T02:43:11.061Z,1.80
2022-09-15T02:45:37.567Z,1.33
2022-09-15T02:48:04.635Z,1.52
2022-09-15T02:50:31.140Z,1.95
2022-09-15T02:52:57.730Z,1.40
2022-09-15T02:55:27.265Z,1.52
2022-09-15T02:57:53.705Z,2.08
2022-09-15T03:00:20.723Z,1.30
2022-09-15T03:02:51.110Z,1.73
2022-09-15T03:05:26.409Z,1.40
2022-09-15T03:07:53.355Z,1.05
2022-09-15T03:10:20.724Z,1.60
2022-09-15T03:12:49.614Z,1.13
2022-09-15T03:15:18.857Z,1.20
2022-09-15T03:17:46.959Z,1.23
2022-09-15T03:20:17.156Z,1.42
2022-09-15T03:22:44.038Z,1.40
2022-09-15T03:25:11.332Z,1.08
2022-09-15T03:27:38.381Z,1.02
2022-09-15T03:30:07.121Z,1.17
2022-09-15T03:32:33.551Z,2.28
2022-09-15T03:34:59.971Z,1.08
2022-09-15T03:37:26.719Z,1.50
2022-09-15T03:39:53.194Z,1.75
2022-09-15T03:42:20.571Z,1.52
2022-09-15T03:44:47.226Z,1.40
2022-09-15T03:47:13.697Z,1.52
2022-09-15T03:49:40.083Z,1.38
2022-09-15T03:52:06.510Z,1.45
2022-09-15T03:54:35.455Z,1.80
2022-09-15T03:57:02.124Z,1.65
2022-09-15T03:59:28.542Z,1.05
2022-09-15T04:01:55.017Z,1.45
2022-09-15T04:04:21.525Z,1.20
2022-09-15T04:06:47.996Z,1.02
2022-09-15T04:09:14.529Z,1.23
2022-09-15T04:11:40.969Z,1.20
2022-09-15T04:14:07.465Z,0.73
2022-09-15T04:16:34.172Z,1.77
2022-09-15T04:19:00.863Z,1.58
2022-09-15T04:21:27.343Z,1.15
2022-09-15T04:23:54.120Z,1.35
2022-09-15T04:26:31.384Z,0.95
2022-09-15T04:29:03.720Z,0.95
2022-09-15T04:31:31.893Z,1.30
2022-09-15T04:33:58.432Z,1.23
2022-09-15T04:36:27.411Z,1.08
2022-09-15T04:38:53.841Z,1.80
2022-09-15T04:41:20.986Z,1.30
2022-09-15T04:43:48.039Z,1.17
2022-09-15T04:46:15.217Z,1.45
2022-09-15T04:48:42.452Z,1.00
2022-09-15T04:51:12.729Z,1.15
2022-09-15T04:53:39.572Z,1.42
2022-09-15T04:56:08.488Z,1.15
2022-09-15T04:58:39.411Z,1.27
2022-09-15T05:01:13.370Z,1.00
2022-09-15T05:03:41.010Z,1.48
2022-09-15T05:06:09.997Z,1.35
2022-09-15T05:08:36.706Z,1.05
2022-09-15T05:11:05.758Z,1.35
2022-09-15T05:13:33.145Z,1.40
2022-09-15T05:16:12.046Z,1.33
2022-09-15T05:18:39.901Z,0.80
2022-09-15T05:21:07.836Z,1.25
2022-09-15T05:23:35.829Z,0.80
2022-09-15T05:26:04.952Z,2.22
2022-09-15T05:28:36.311Z,2.45
2022-09-15T05:31:11.410Z,0.80
2022-09-15T05:33:38.571Z,0.93
2022-09-15T05:36:05.373Z,1.10
2022-09-15T05:38:32.304Z,1.13
2022-09-15T05:41:07.300Z,1.33
2022-09-15T05:43:35.423Z,1.15
2022-09-15T05:46:02.894Z,1.33
2022-09-15T05:48:30.046Z,1.52
2022-09-15T05:50:56.972Z,1.25
2022-09-15T05:53:24.440Z,0.63
2022-09-15T05:55:58.073Z,1.10
2022-09-15T05:58:25.968Z,0.90
2022-09-15T06:00:53.475Z,1.58
2022-09-15T06:03:20.952Z,1.10
2022-09-15T06:05:47.816Z,1.67
2022-09-15T06:08:14.338Z,1.20
2022-09-15T06:10:40.794Z,1.70
2022-09-15T06:13:07.270Z,0.90
2022-09-15T06:15:33.752Z,1.17
2022-09-15T06:18:00.205Z,2.10
2022-09-15T06:20:26.729Z,2.50
2022-09-15T06:22:53.769Z,1.45
2022-09-15T06:25:20.261Z,1.38
2022-09-15T06:27:49.163Z,2.53
2022-09-15T06:30:15.687Z,1.10
2022-09-15T06:32:47.411Z,0.93
2022-09-15T06:35:15.189Z,1.17
2022-09-15T06:37:41.652Z,1.65
2022-09-15T06:40:08.831Z,1.88
2022-09-15T06:42:35.417Z,1.20
2022-09-15T06:45:01.881Z,1.80
2022-09-15T06:47:33.777Z,1.25
2022-09-15T06:50:00.991Z,1.60
2022-09-15T06:52:28.093Z,2.15
2022-09-15T06:54:54.598Z,1.55
2022-09-15T06:57:21.068Z,2.55
2022-09-15T06:59:47.542Z,2.28
2022-09-15T07:02:14.040Z,2.65
2022-09-15T07:04:40.533Z,1.58
2022-09-15T07:07:06.958Z,1.30
2022-09-15T07:09:33.428Z,2.03
2022-09-15T07:11:59.915Z,2.03
2022-09-15T07:14:26.340Z,2.28
2022-09-15T07:16:52.816Z,2.65
2022-09-15T07:19:19.243Z,2.55
2022-09-15T07:21:45.642Z,3.25
2022-09-15T07:24:12.757Z,2.10
2022-09-15T07:26:39.286Z,3.97
2022-09-15T07:29:06.907Z,10.95
2022-09-15T07:31:35.341Z,33.53
2022-09-15T07:34:02.416Z,82.40
2022-09-15T07:36:29.816Z,76.15
2022-09-15T07:38:56.691Z,64.55
2022-09-15T07:41:26.293Z,102.00
2022-09-15T07:43:54.990Z,75.15
2022-09-15T07:46:23.947Z,57.25
2022-09-15T07:48:53.107Z,62.67
2022-09-15T07:51:20.841Z,66.97
2022-09-15T07:53:48.881Z,95.20
2022-09-15T07:56:18.396Z,93.20
2022-09-15T07:58:46.434Z,51.42
2022-09-15T08:01:16.536Z,17.25
2022-09-15T08:03:45.300Z,17.77
2022-09-15T08:06:13.283Z,12.15
2022-09-15T08:08:41.282Z,14.05
2022-09-15T08:11:19.134Z,14.57
2022-09-15T08:13:50.114Z,10.18
2022-09-15T08:16:19.827Z,7.50
2022-09-15T08:18:46.469Z,9.80
2022-09-15T08:21:17.290Z,19.10
2022-09-15T08:23:44.030Z,23.88
2022-09-15T08:26:14.312Z,38.45
2022-09-15T08:28:42.266Z,28.30
2022-09-15T08:31:11.404Z,40.78
2022-09-15T08:33:43.146Z,18.88
2022-09-15T08:36:11.892Z,18.15
2022-09-15T08:38:40.422Z,28.80
2022-09-15T08:41:12.293Z,25.08
2022-09-15T08:43:53.381Z,46.45
2022-09-15T08:46:26.092Z,35.83
2022-09-15T08:54:11.422Z,40.10
2022-09-15T08:56:39.278Z,64.13
2022-09-15T08:59:05.715Z,54.40
2022-09-15T09:01:41.547Z,30.27
2022-09-15T09:04:22.868Z,15.57
2022-09-15T09:07:01.030Z,11.38
2022-09-15T09:09:42.813Z,9.00
2022-09-15T09:12:19.853Z,10.32
2022-09-15T09:15:25.141Z,6.82
2022-09-15T09:18:16.042Z,6.78
2022-09-15T09:20:50.862Z,5.03
2022-09-15T09:23:22.204Z,8.15
2022-09-15T09:25:50.392Z,10.23
2022-09-15T09:28:40.732Z,9.85
2022-09-15T09:31:17.183Z,12.48
2022-09-15T09:34:03.764Z,17.13
2022-09-15T09:36:30.355Z,11.45
2022-09-15T09:38:57.196Z,13.30
2022-09-15T09:41:28.536Z,14.45
2022-09-15T09:43:55.965Z,17.13
2022-09-15T09:46:22.424Z,16.45
2022-09-15T09:49:20.280Z,11.25
2022-09-15T09:52:04.942Z,9.48
2022-09-15T09:54:33.835Z,10.93
2022-09-15T09:57:21.967Z,14.95
2022-09-15T09:59:50.421Z,9.65
2022-09-15T10:02:23.089Z,9.07
2022-09-15T10:04:51.925Z,12.75
2022-09-15T10:07:21.770Z,8.27
2022-09-15T10:09:59.991Z,8.23
2022-09-15T10:12:32.754Z,7.03
2022-09-15T10:15:04.432Z,6.40
2022-09-15T10:17:36.641Z,6.23
2022-09-15T10:20:06.162Z,6.00
2022-09-15T10:22:35.787Z,6.53
2022-09-15T10:25:23.732Z,7.28
2022-09-15T10:28:10.132Z,5.82
2022-09-15T10:30:37.170Z,4.60
2022-09-15T10:33:20.479Z,7.20
2022-09-15T10:35:46.976Z,4.00
2022-09-15T10:38:17.819Z,3.90
2022-09-15T10:41:03.141Z,5.03
2022-09-15T10:43:53.998Z,5.55
2022-09-15T10:46:44.943Z,5.60
2022-09-15T10:49:49.802Z,5.25
2022-09-15T10:52:40.393Z,8.18
2022-09-15T10:55:48.511Z,7.68
2022-09-15T10:58:17.587Z,4.50
2022-09-15T11:01:26.610Z,3.42
2022-09-15T11:04:08.486Z,3.95
2022-09-15T11:07:02.618Z,4.35
2022-09-15T11:10:05.327Z,3.22
2022-09-15T11:12:52.384Z,5.47
2022-09-15T11:15:33.464Z,4.68
2022-09-15T11:18:18.484Z,4.60
2022-09-15T11:20:50.864Z,2.83
2022-09-15T11:23:37.487Z,3.10
2022-09-15T11:26:20.605Z,4.07
2022-09-15T11:28:54.042Z,3.00
2022-09-15T11:31:26.924Z,3.20
2022-09-15T11:34:17.676Z,2.30
2022-09-15T11:37:01.506Z,3.92
2022-09-15T11:39:36.185Z,2.17
2022-09-15T11:42:13.770Z,3.35
2022-09-15T11:44:45.021Z,3.13
2022-09-15T11:47:14.767Z,2.05
2022-09-15T11:50:07.886Z,2.97
2022-09-15T11:52:59.424Z,1.90
2022-09-15T11:56:13.826Z,1.63
2022-09-15T11:58:49.006Z,3.30
2022-09-15T12:01:24.994Z,2.28
2022-09-15T12:04:08.508Z,3.30
2022-09-15T12:06:45.913Z,3.58
2022-09-15T12:09:15.974Z,2.83
2022-09-15T12:11:46.246Z,9.55
2022-09-15T12:14:17.097Z,1.92
2022-09-15T12:16:44.562Z,3.70
2022-09-15T12:19:41.130Z,3.22
2022-09-15T12:22:17.735Z,4.05
2022-09-15T12:24:58.850Z,3.55
2022-09-15T12:27:27.567Z,2.47
2022-09-15T12:29:56.546Z,4.38
2022-09-15T12:32:29.859Z,4.25
2022-09-15T12:35:02.563Z,1.98
2022-09-15T12:37:52.863Z,3.75
2022-09-15T12:40:39.824Z,3.85
2022-09-15T12:43:12.765Z,3.60
2022-09-15T12:45:41.422Z,9.18
2022-09-15T12:48:35.795Z,3.75
2022-09-15T12:51:05.689Z,2.03
2022-09-15T12:53:51.652Z,1.38
2022-09-15T12:56:24.674Z,2.83
2022-09-15T12:58:52.214Z,1.55
2022-09-15T13:01:19.167Z,3.20
2022-09-15T13:03:45.877Z,1.52
2022-09-15T13:06:26.250Z,1.80
2022-09-15T13:09:01.581Z,1.63
2022-09-15T13:11:37.531Z,4.85
2022-09-15T13:14:04.186Z,2.08
2022-09-15T13:16:52.828Z,2.13
2022-09-15T13:19:44.335Z,4.68
2022-09-15T13:22:10.711Z,3.50
2022-09-15T13:25:02.039Z,1.92
2022-09-15T13:27:50.371Z,4.47
2022-09-15T13:30:29.136Z,1.90
2022-09-15T13:33:15.480Z,3.33
2022-09-15T13:36:05.017Z,3.03
2022-09-15T13:38:54.598Z,2.78
2022-09-15T13:41:24.006Z,1.95
2022-09-15T13:44:08.593Z,2.97
2022-09-15T13:46:47.701Z,3.53
2022-09-15T13:49:43.207Z,3.75
2022-09-15T13:52:18.490Z,3.08
2022-09-15T13:55:21.437Z,2.45
2022-09-15T14:00:48.381Z,3.83
2022-09-15T14:03:18.021Z,2.03
2022-09-15T14:05:45.264Z,4.80
2022-09-15T14:08:26.399Z,2.53
2022-09-15T14:11:02.764Z,3.13
2022-09-15T14:13:30.485Z,3.25
2022-09-15T14:16:01.104Z,3.70
2022-09-15T14:18:28.724Z,4.93
2022-09-15T14:21:03.795Z,2.55
2022-09-15T14:23:31.036Z,3.03
2022-09-15T14:26:00.337Z,2.67
2022-09-15T14:28:32.243Z,5.38
2022-09-15T14:31:00.601Z,3.33
2022-09-15T14:33:37.860Z,3.25
2022-09-15T14:36:20.580Z,2.08
2022-09-15T14:39:02.929Z,3.13
2022-09-15T14:41:32.624Z,2.25
2022-09-15T14:43:59.023Z,3.08
2022-09-15T14:46:36.964Z,2.83
2022-09-15T14:49:11.295Z,1.65
2022-09-15T14:51:38.545Z,2.28
2022-09-15T14:54:07.697Z,1.92
2022-09-15T14:56:41.133Z,3.88
2022-09-15T14:59:14.810Z,2.25
2022-09-15T15:01:50.857Z,1.42
2022-09-15T15:04:31.035Z,4.63
2022-09-15T15:07:08.147Z,6.72
2022-09-15T15:09:58.127Z,3.92
2022-09-15T15:12:34.532Z,3.55
2022-09-15T15:15:01.802Z,2.78
2022-09-15T15:17:47.883Z,3.13
2022-09-15T15:20:22.723Z,3.17
2022-09-15T15:23:08.027Z,3.03
2022-09-15T15:25:34.605Z,1.75
2022-09-15T15:28:03.202Z,1.75
2022-09-15T15:30:29.652Z,3.45
2022-09-15T15:33:26.636Z,3.58
2022-09-15T15:36:13.837Z,2.28
2022-09-15T15:38:57.526Z,3.05
2022-09-15T15:41:29.638Z,2.08
2022-09-15T15:44:09.286Z,1.70
2022-09-15T15:46:50.967Z,2.45
2022-09-15T15:49:18.711Z,1.92
2022-09-15T15:51:45.194Z,2.33
2022-09-15T15:54:11.716Z,1.65
2022-09-15T15:56:38.504Z,2.22
2022-09-15T15:59:05.835Z,2.10
2022-09-15T16:01:33.231Z,2.45
2022-09-15T16:03:59.734Z,1.30
2022-09-15T16:06:26.249Z,1.67
2022-09-15T16:08:52.828Z,1.45
2022-09-15T16:11:20.822Z,2.85
2022-09-15T16:13:48.266Z,1.90
2022-09-15T16:16:14.792Z,2.13
2022-09-15T16:18:41.268Z,2.13
2022-09-15T16:21:15.836Z,1.50
2022-09-15T16:23:42.327Z,1.77
2022-09-15T16:26:13.455Z,1.20
2022-09-15T16:28:40.163Z,1.92
2022-09-15T16:31:10.879Z,1.65
2022-09-15T16:33:38.229Z,1.48
2022-09-15T16:36:08.118Z,2.35
2022-09-15T16:38:36.275Z,1.45
2022-09-15T16:41:04.222Z,2.25
2022-09-15T16:43:30.672Z,1.08
2022-09-15T16:45:57.879Z,2.35
2022-09-15T16:48:27.345Z,1.35
2022-09-15T16:51:20.358Z,1.85
2022-09-15T16:53:40.982Z,1.70
2022-09-15T16:56:11.437Z,1.40
2022-09-15T16:58:38.449Z,1.60
2022-09-15T17:01:05.552Z,1.35
2022-09-15T17:03:32.409Z,1.20
2022-09-15T17:06:00.844Z,1.63
2022-09-15T17:08:31.080Z,1.88
2022-09-15T17:11:00.651Z,1.08
2022-09-15T17:13:30.694Z,1.10
2022-09-15T17:15:57.855Z,1.70
2022-09-15T17:18:24.911Z,1.73
2022-09-15T17:20:51.722Z,1.58
2022-09-15T17:23:23.982Z,1.20
2022-09-15T17:25:52.919Z,1.40
2022-09-15T17:28:24.377Z,1.73
2022-09-15T17:30:55.716Z,0.98
2022-09-15T17:33:23.106Z,0.93
2022-09-15T17:35:49.891Z,1.20
2022-09-15T17:38:16.535Z,2.47
2022-09-15T17:40:43.081Z,1.35
2022-09-15T17:43:15.974Z,1.70
2022-09-15T17:45:45.194Z,0.75
2022-09-15T17:48:12.281Z,1.20
2022-09-15T17:50:39.894Z,1.42
2022-09-15T17:53:13.961Z,0.88
2022-09-15T17:55:41.043Z,0.77
2022-09-15T17:58:08.008Z,1.73
2022-09-15T18:00:37.457Z,1.58
2022-09-15T18:03:28.801Z,1.25
2022-09-15T18:06:16.560Z,0.90
2022-09-15T18:08:44.176Z,2.38
2022-09-15T18:11:13.821Z,1.02
2022-09-15T18:13:40.219Z,1.23
2022-09-15T18:16:11.342Z,1.02
2022-09-15T18:18:39.951Z,0.82
2022-09-15T18:21:15.658Z,1.45
2022-09-15T18:23:42.454Z,1.73
2022-09-15T18:26:09.153Z,1.60
2022-09-15T18:28:35.575Z,1.20
2022-09-15T18:31:02.021Z,1.02
2022-09-15T18:33:29.064Z,1.08
2022-09-15T18:35:59.090Z,0.98
2022-09-15T18:38:25.896Z,0.80
2022-09-15T18:40:55.264Z,1.02
2022-09-15T18:43:22.949Z,1.10
2022-09-15T18:45:50.292Z,1.40
2022-09-15T18:48:16.818Z,1.25
2022-09-15T18:50:44.580Z,1.77
2022-09-15T18:53:11.718Z,1.23
2022-09-15T18:55:41.537Z,0.80
2022-09-15T18:58:11.244Z,0.93
2022-09-15T19:00:41.237Z,0.85
2022-09-15T19:03:11.251Z,1.73
2022-09-15T19:05:38.528Z,0.90
2022-09-15T19:08:05.108Z,1.10
2022-09-15T19:10:32.461Z,0.85
2022-09-15T19:12:58.854Z,1.73
2022-09-15T19:15:25.276Z,1.00
2022-09-15T19:17:51.822Z,1.02
2022-09-15T19:20:18.804Z,1.23
2022-09-15T19:22:46.084Z,1.00
2022-09-15T19:25:14.508Z,1.10
2022-09-15T19:27:41.316Z,1.50
2022-09-15T19:30:09.965Z,1.75
2022-09-15T19:32:37.035Z,1.15
2022-09-15T19:35:04.280Z,2.20
2022-09-15T19:37:30.737Z,1.15
2022-09-15T19:39:57.354Z,1.10
2022-09-15T19:42:23.831Z,1.35
2022-09-15T19:44:50.376Z,0.88
2022-09-15T19:47:16.977Z,1.38
2022-09-15T19:49:46.294Z,1.05
2022-09-15T19:52:12.862Z,1.25
2022-09-15T19:54:39.306Z,0.80
2022-09-15T19:57:05.751Z,1.25
2022-09-15T19:59:32.484Z,2.67
2022-09-15T20:02:00.552Z,0.85
2022-09-15T20:04:28.032Z,1.10
2022-09-15T20:06:54.486Z,1.10
2022-09-15T20:09:20.970Z,1.77
2022-09-15T20:11:47.612Z,1.83
2022-09-15T20:14:14.747Z,1.38
2022-09-15T20:16:41.356Z,1.00
2022-09-15T20:19:08.002Z,1.90
2022-09-15T20:21:49.921Z,1.15
2022-09-15T20:24:17.426Z,1.15
2022-09-15T20:26:43.887Z,1.05
2022-09-15T20:29:10.675Z,1.50
2022-09-15T20:31:37.286Z,1.25
2022-09-15T20:34:03.683Z,1.13
2022-09-15T20:36:33.424Z,0.90
2022-09-15T20:39:00.984Z,1.23
2022-09-15T20:41:31.906Z,1.02
2022-09-15T20:43:58.661Z,0.80
2022-09-15T20:46:25.262Z,0.80
2022-09-15T20:48:52.431Z,1.55
2022-09-15T20:51:27.844Z,1.23
2022-09-15T20:53:55.983Z,1.50
2022-09-15T20:56:25.607Z,1.48
2022-09-15T20:58:54.215Z,1.20
2022-09-15T21:01:26.052Z,1.08
2022-09-15T21:03:53.340Z,1.23
2022-09-15T21:06:22.117Z,1.05
2022-09-15T21:08:50.008Z,1.27
2022-09-15T21:11:19.297Z,1.20
2022-09-15T21:13:47.163Z,0.70
2022-09-15T21:16:16.557Z,1.55
2022-09-15T21:18:44.558Z,1.65
2022-09-15T21:21:19.145Z,1.17
2022-09-15T21:23:50.587Z,1.45
2022-09-15T21:26:22.061Z,1.38
2022-09-15T21:28:48.736Z,2.55
2022-09-15T21:31:16.798Z,1.70
2022-09-15T21:33:44.371Z,1.30
2022-09-15T21:36:24.568Z,1.23
2022-09-15T21:38:52.805Z,1.30
2022-09-15T21:41:21.986Z,1.60
2022-09-15T21:43:49.486Z,0.75
2022-09-15T21:46:18.620Z,0.95
2022-09-15T21:48:47.297Z,0.85
2022-09-15T21:51:15.739Z,1.27
2022-09-15T21:53:43.038Z,1.05
2022-09-15T21:56:11.937Z,0.70
2022-09-15T21:58:43.018Z,1.42
2022-09-15T22:01:19.852Z,1.33
2022-09-15T22:03:51.453Z,0.85
2022-09-15T22:06:19.373Z,0.88
2022-09-15T22:08:46.691Z,1.42
2022-09-15T22:11:13.487Z,1.23
2022-09-15T22:13:42.149Z,0.95
2022-09-15T22:16:12.101Z,1.35
2022-09-15T22:18:39.932Z,0.82
2022-09-15T22:21:09.271Z,0.88
2022-09-15T22:23:36.309Z,1.27
2022-09-15T22:26:05.236Z,1.48
2022-09-15T22:28:31.719Z,1.15
2022-09-15T22:30:59.730Z,1.25
2022-09-15T22:33:27.036Z,1.25
2022-09-15T22:35:53.593Z,0.50
2022-09-15T22:38:20.675Z,0.65
2022-09-15T22:40:47.138Z,1.00
2022-09-15T22:43:13.633Z,0.80
2022-09-15T22:45:40.060Z,0.93
2022-09-15T22:48:06.874Z,0.63
2022-09-15T22:50:33.710Z,1.23
2022-09-15T22:53:00.105Z,0.98
2022-09-15T22:55:26.577Z,1.08
2022-09-15T22:57:53.035Z,1.52
2022-09-15T23:00:20.378Z,0.90
2022-09-15T23:02:47.279Z,0.73
2022-09-15T23:05:13.762Z,1.02
2022-09-15T23:07:40.353Z,0.98
2022-09-15T23:10:07.395Z,0.80
2022-09-15T23:12:34.770Z,0.50
2022-09-15T23:15:04.200Z,1.15
2022-09-15T23:17:31.582Z,1.67
2022-09-15T23:19:58.021Z,1.23
2022-09-15T23:22:24.444Z,1.05
2022-09-15T23:24:50.852Z,0.80
2022-09-15T23:27:17.389Z,0.70
2022-09-15T23:29:43.904Z,2.03
2022-09-15T23:32:10.336Z,1.05
2022-09-15T23:34:36.776Z,0.52
2022-09-15T23:37:03.425Z,0.95
2022-09-15T23:39:29.924Z,1.30
2022-09-15T23:41:56.554Z,0.73
2022-09-15T23:44:23.506Z,1.77
2022-09-15T23:46:49.986Z,0.95
2022-09-15T23:49:18.701Z,1.23
2022-09-15T23:51:45.487Z,0.95
2022-09-15T23:54:11.987Z,0.98
2022-09-15T23:56:38.480Z,1.17
2022-09-15T23:59:04.863Z,0.85
